sensor_id;sensor_type;location;lat;lon;timestamp;pressure;altitude;pressure_sealevel;temperature;humidity
68376;BME280;55318;52.068;5.188;2023-04-01T00:01:25;99067.0;;;12.21;100.0
68376;BME280;55318;52.068;5.188;2023-04-01T00:03:02;99066.0;;;12.31;100.0
68376;BME280;55318;52.068;5.188;2023-04-01T00:06:15;99071.0;;;12.21;100.0
68376;BME280;55318;52.068;5.188;2023-04-01T00:07:53;99077.0;;;12.14;100.0
68376;BME280;55318;52.068;5.188;2023-04-01T00:09:29;99075.0;;;11.97;100.0
68376;BME280;55318;52.068;5.188;2023-04-01T00:12:41;99078.0;;;12.24;100.0
68376;BME280;55318;52.068;5.188;2023-04-01T00:14:18;99082.0;;;12.14;100.0
68376;BME280;55318;52.068;5.188;2023-04-01T00:15:55;99083.0;;;12.02;100.0
68376;BME280;55318;52.068;5.188;2023-04-01T00:19:08;99080.0;;;12.06;100.0
68376;BME280;55318;52.068;5.188;2023-04-01T00:20:45;99081.0;;;11.92;100.0
68376;BME280;55318;52.068;5.188;2023-04-01T00:22:22;99080.0;;;11.91;100.0
68376;BME280;55318;52.068;5.188;2023-04-01T00:23:59;99083.0;;;12.03;100.0
68376;BME280;55318;52.068;5.188;2023-04-01T00:27:12;99082.0;;;12.0;100.0
68376;BME280;55318;52.068;5.188;2023-04-01T00:28:48;99081.0;;;12.24;99.62
68376;BME280;55318;52.068;5.188;2023-04-01T00:30:25;99084.0;;;12.11;99.64
68376;BME280;55318;52.068;5.188;2023-04-01T00:33:37;99087.0;;;12.19;99.26
68376;BME280;55318;52.068;5.188;2023-04-01T00:35:14;99084.0;;;11.99;99.43
68376;BME280;55318;52.068;5.188;2023-04-01T00:36:51;99083.0;;;12.04;99.17
68376;BME280;55318;52.068;5.188;2023-04-01T00:40:07;99086.0;;;12.08;99.24
68376;BME280;55318;52.068;5.188;2023-04-01T00:42:02;99085.0;;;11.89;99.59
68376;BME280;55318;52.068;5.188;2023-04-01T00:43:39;99087.0;;;12.01;99.27
68376;BME280;55318;52.068;5.188;2023-04-01T00:45:27;99083.0;;;11.93;99.77
68376;BME280;55318;52.068;5.188;2023-04-01T00:47:05;99097.0;;;11.82;100.0
68376;BME280;55318;52.068;5.188;2023-04-01T00:50:22;99093.0;;;11.8;100.0
68376;BME280;55318;52.068;5.188;2023-04-01T00:52:02;99093.0;;;11.69;100.0
68376;BME280;55318;52.068;5.188;2023-04-01T00:53:41;99092.0;;;11.81;100.0
68376;BME280;55318;52.068;5.188;2023-04-01T00:55:21;99095.0;;;11.79;100.0
68376;BME280;55318;52.068;5.188;2023-04-01T00:58:42;99094.0;;;11.73;100.0
68376;BME280;55318;52.068;5.188;2023-04-01T01:00:20;99097.0;;;11.6;100.0
68376;BME280;55318;52.068;5.188;2023-04-01T01:01:56;99099.0;;;11.76;100.0
68376;BME280;55318;52.068;5.188;2023-04-01T01:05:11;99100.0;;;11.8;100.0
68376;BME280;55318;52.068;5.188;2023-04-01T01:06:56;99098.0;;;11.64;100.0
68376;BME280;55318;52.068;5.188;2023-04-01T01:08:43;99103.0;;;11.65;100.0
68376;BME280;55318;52.068;5.188;2023-04-01T01:10:39;99096.0;;;11.44;100.0
68376;BME280;55318;52.068;5.188;2023-04-01T01:12:18;99098.0;;;11.66;100.0
68376;BME280;55318;52.068;5.188;2023-04-01T01:15:45;99103.0;;;11.56;100.0
68376;BME280;55318;52.068;5.188;2023-04-01T01:17:31;99103.0;;;11.47;100.0
68376;BME280;55318;52.068;5.188;2023-04-01T01:19:31;99108.0;;;11.61;100.0
68376;BME280;55318;52.068;5.188;2023-04-01T01:21:58;99107.0;;;11.64;100.0
68376;BME280;55318;52.068;5.188;2023-04-01T01:26:58;99109.0;;;11.42;100.0
68376;BME280;55318;52.068;5.188;2023-04-01T01:28:45;99113.0;;;11.39;100.0
68376;BME280;55318;52.068;5.188;2023-04-01T01:30:37;99106.0;;;11.46;100.0
68376;BME280;55318;52.068;5.188;2023-04-01T01:32:30;99109.0;;;11.42;100.0
68376;BME280;55318;52.068;5.188;2023-04-01T01:35:19;99114.0;;;11.51;100.0
68376;BME280;55318;52.068;5.188;2023-04-01T01:38:42;99111.0;;;11.41;100.0
68376;BME280;55318;52.068;5.188;2023-04-01T01:40:19;99109.0;;;11.41;100.0
68376;BME280;55318;52.068;5.188;2023-04-01T01:41:57;99112.0;;;11.42;100.0
68376;BME280;55318;52.068;5.188;2023-04-01T01:43:39;99110.0;;;11.48;100.0
68376;BME280;55318;52.068;5.188;2023-04-01T01:46:58;99112.0;;;11.38;100.0
68376;BME280;55318;52.068;5.188;2023-04-01T01:48:35;99117.0;;;11.29;100.0
68376;BME280;55318;52.068;5.188;2023-04-01T01:50:13;99113.0;;;11.4;100.0
68376;BME280;55318;52.068;5.188;2023-04-01T01:51:52;99112.0;;;11.3;100.0
68376;BME280;55318;52.068;5.188;2023-04-01T01:55:24;99120.0;;;11.26;100.0
68376;BME280;55318;52.068;5.188;2023-04-01T01:57:04;99117.0;;;11.19;100.0
68376;BME280;55318;52.068;5.188;2023-04-01T01:58:44;99115.0;;;11.32;100.0
68376;BME280;55318;52.068;5.188;2023-04-01T02:00:22;99116.0;;;11.37;100.0
68376;BME280;55318;52.068;5.188;2023-04-01T02:03:37;99118.0;;;11.38;100.0
68376;BME280;55318;52.068;5.188;2023-04-01T02:05:18;99123.0;;;11.12;100.0
68376;BME280;55318;52.068;5.188;2023-04-01T02:06:58;99124.0;;;11.12;100.0
68376;BME280;55318;52.068;5.188;2023-04-01T02:08:39;99124.0;;;11.24;100.0
68376;BME280;55318;52.068;5.188;2023-04-01T02:12:01;99127.0;;;11.22;100.0
68376;BME280;55318;52.068;5.188;2023-04-01T02:13:43;99128.0;;;11.3;100.0
68376;BME280;55318;52.068;5.188;2023-04-01T02:15:24;99132.0;;;11.13;100.0
68376;BME280;55318;52.068;5.188;2023-04-01T02:17:05;99132.0;;;11.27;100.0
68376;BME280;55318;52.068;5.188;2023-04-01T02:20:24;99132.0;;;11.01;100.0
68376;BME280;55318;52.068;5.188;2023-04-01T02:22:08;99137.0;;;11.11;100.0
68376;BME280;55318;52.068;5.188;2023-04-01T02:23:46;99133.0;;;11.14;100.0
68376;BME280;55318;52.068;5.188;2023-04-01T02:25:25;99135.0;;;11.08;100.0
68376;BME280;55318;52.068;5.188;2023-04-01T02:28:41;99135.0;;;11.01;100.0
68376;BME280;55318;52.068;5.188;2023-04-01T02:30:19;99136.0;;;11.17;100.0
68376;BME280;55318;52.068;5.188;2023-04-01T02:31:56;99138.0;;;11.2;100.0
68376;BME280;55318;52.068;5.188;2023-04-01T02:35:12;99141.0;;;11.05;100.0
68376;BME280;55318;52.068;5.188;2023-04-01T02:36:50;99140.0;;;11.11;100.0
68376;BME280;55318;52.068;5.188;2023-04-01T02:38:26;99140.0;;;11.19;100.0
68376;BME280;55318;52.068;5.188;2023-04-01T02:40:05;99144.0;;;11.17;100.0
68376;BME280;55318;52.068;5.188;2023-04-01T02:43:21;99143.0;;;11.11;100.0
68376;BME280;55318;52.068;5.188;2023-04-01T02:44:57;99148.0;;;11.16;100.0
68376;BME280;55318;52.068;5.188;2023-04-01T02:46:33;99143.0;;;11.22;100.0
68376;BME280;55318;52.068;5.188;2023-04-01T02:49:45;99145.0;;;11.2;100.0
68376;BME280;55318;52.068;5.188;2023-04-01T02:51:21;99150.0;;;11.25;100.0
68376;BME280;55318;52.068;5.188;2023-04-01T02:52:58;99148.0;;;11.18;100.0
68376;BME280;55318;52.068;5.188;2023-04-01T02:54:34;99151.0;;;11.13;100.0
68376;BME280;55318;52.068;5.188;2023-04-01T02:57:48;99155.0;;;11.26;100.0
68376;BME280;55318;52.068;5.188;2023-04-01T02:59:24;99153.0;;;11.3;100.0
68376;BME280;55318;52.068;5.188;2023-04-01T03:01:00;99155.0;;;11.38;100.0
68376;BME280;55318;52.068;5.188;2023-04-01T03:04:13;99158.0;;;11.48;100.0
68376;BME280;55318;52.068;5.188;2023-04-01T03:05:49;99162.0;;;11.37;100.0
68376;BME280;55318;52.068;5.188;2023-04-01T03:07:25;99164.0;;;11.3;100.0
68376;BME280;55318;52.068;5.188;2023-04-01T03:12:14;99167.0;;;11.33;100.0
68376;BME280;55318;52.068;5.188;2023-04-01T03:13:50;99173.0;;;11.27;100.0
68376;BME280;55318;52.068;5.188;2023-04-01T03:17:02;99178.0;;;11.29;100.0
68376;BME280;55318;52.068;5.188;2023-04-01T03:18:38;99181.0;;;11.56;100.0
68376;BME280;55318;52.068;5.188;2023-04-01T03:20:15;99178.0;;;11.5;100.0
68376;BME280;55318;52.068;5.188;2023-04-01T03:21:52;99183.0;;;11.3;100.0
68376;BME280;55318;52.068;5.188;2023-04-01T03:25:06;99190.0;;;11.5;100.0
68376;BME280;55318;52.068;5.188;2023-04-01T03:26:42;99194.0;;;11.29;100.0
68376;BME280;55318;52.068;5.188;2023-04-01T03:28:18;99194.0;;;11.37;100.0
68376;BME280;55318;52.068;5.188;2023-04-01T03:31:30;99196.0;;;11.5;100.0
68376;BME280;55318;52.068;5.188;2023-04-01T03:33:07;99201.0;;;11.52;100.0
68376;BME280;55318;52.068;5.188;2023-04-01T03:34:43;99202.0;;;11.45;100.0
68376;BME280;55318;52.068;5.188;2023-04-01T03:37:55;99205.0;;;11.55;100.0
68376;BME280;55318;52.068;5.188;2023-04-01T03:39:31;99203.0;;;11.55;100.0
68376;BME280;55318;52.068;5.188;2023-04-01T03:41:11;99207.0;;;11.52;100.0
68376;BME280;55318;52.068;5.188;2023-04-01T03:42:48;99208.0;;;11.58;100.0
68376;BME280;55318;52.068;5.188;2023-04-01T03:46:01;99214.0;;;11.42;100.0
68376;BME280;55318;52.068;5.188;2023-04-01T03:47:37;99208.0;;;11.55;100.0
68376;BME280;55318;52.068;5.188;2023-04-01T03:49:13;99212.0;;;11.64;100.0
68376;BME280;55318;52.068;5.188;2023-04-01T03:52:25;99211.0;;;11.7;100.0
68376;BME280;55318;52.068;5.188;2023-04-01T03:54:01;99219.0;;;11.64;100.0
68376;BME280;55318;52.068;5.188;2023-04-01T03:55:37;99219.0;;;11.63;100.0
68376;BME280;55318;52.068;5.188;2023-04-01T03:58:51;99218.0;;;11.62;100.0
68376;BME280;55318;52.068;5.188;2023-04-01T04:00:27;99226.0;;;11.75;100.0
68376;BME280;55318;52.068;5.188;2023-04-01T04:02:04;99226.0;;;11.72;100.0
68376;BME280;55318;52.068;5.188;2023-04-01T04:03:40;99228.0;;;11.78;100.0
68376;BME280;55318;52.068;5.188;2023-04-01T04:06:53;99232.0;;;11.78;100.0
68376;BME280;55318;52.068;5.188;2023-04-01T04:08:29;99234.0;;;11.77;100.0
68376;BME280;55318;52.068;5.188;2023-04-01T04:10:06;99242.0;;;12.0;100.0
68376;BME280;55318;52.068;5.188;2023-04-01T04:13:19;99240.0;;;11.85;100.0
68376;BME280;55318;52.068;5.188;2023-04-01T04:14:55;99245.0;;;11.91;100.0
68376;BME280;55318;52.068;5.188;2023-04-01T04:16:35;99249.0;;;11.93;100.0
68376;BME280;55318;52.068;5.188;2023-04-01T04:19:47;99250.0;;;11.94;100.0
68376;BME280;55318;52.068;5.188;2023-04-01T04:21:24;99251.0;;;11.82;100.0
68376;BME280;55318;52.068;5.188;2023-04-01T04:23:00;99255.0;;;11.87;100.0
68376;BME280;55318;52.068;5.188;2023-04-01T04:24:37;99261.0;;;11.78;100.0
68376;BME280;55318;52.068;5.188;2023-04-01T04:27:51;99261.0;;;11.83;100.0
68376;BME280;55318;52.068;5.188;2023-04-01T04:29:27;99265.0;;;11.8;100.0
68376;BME280;55318;52.068;5.188;2023-04-01T04:31:03;99268.0;;;11.8;100.0
68376;BME280;55318;52.068;5.188;2023-04-01T04:34:16;99278.0;;;11.77;100.0
68376;BME280;55318;52.068;5.188;2023-04-01T04:35:55;99275.0;;;12.03;100.0
68376;BME280;55318;52.068;5.188;2023-04-01T04:37:32;99280.0;;;11.84;100.0
68376;BME280;55318;52.068;5.188;2023-04-01T04:39:08;99282.0;;;11.84;100.0
68376;BME280;55318;52.068;5.188;2023-04-01T04:42:21;99291.0;;;11.64;100.0
68376;BME280;55318;52.068;5.188;2023-04-01T04:43:57;99291.0;;;11.68;100.0
68376;BME280;55318;52.068;5.188;2023-04-01T04:45:33;99298.0;;;11.83;100.0
68376;BME280;55318;52.068;5.188;2023-04-01T04:48:46;99301.0;;;11.89;100.0
68376;BME280;55318;52.068;5.188;2023-04-01T04:50:22;99297.0;;;12.01;100.0
68376;BME280;55318;52.068;5.188;2023-04-01T04:51:58;99306.0;;;12.01;100.0
68376;BME280;55318;52.068;5.188;2023-04-01T04:55:12;99308.0;;;11.96;100.0
68376;BME280;55318;52.068;5.188;2023-04-01T04:56:48;99317.0;;;11.78;100.0
68376;BME280;55318;52.068;5.188;2023-04-01T04:58:27;99321.0;;;11.81;100.0
68376;BME280;55318;52.068;5.188;2023-04-01T05:00:04;99330.0;;;11.82;100.0
68376;BME280;55318;52.068;5.188;2023-04-01T05:03:17;99332.0;;;11.87;100.0
68376;BME280;55318;52.068;5.188;2023-04-01T05:04:53;99336.0;;;11.96;100.0
68376;BME280;55318;52.068;5.188;2023-04-01T05:06:29;99338.0;;;12.01;100.0
68376;BME280;55318;52.068;5.188;2023-04-01T05:09:42;99341.0;;;12.0;100.0
68376;BME280;55318;52.068;5.188;2023-04-01T05:11:19;99341.0;;;12.01;100.0
68376;BME280;55318;52.068;5.188;2023-04-01T05:12:55;99345.0;;;12.11;100.0
68376;BME280;55318;52.068;5.188;2023-04-01T05:16:08;99351.0;;;12.1;100.0
68376;BME280;55318;52.068;5.188;2023-04-01T05:17:44;99349.0;;;11.77;100.0
68376;BME280;55318;52.068;5.188;2023-04-01T05:19:20;99360.0;;;11.96;100.0
68376;BME280;55318;52.068;5.188;2023-04-01T05:22:32;99366.0;;;12.08;100.0
68376;BME280;55318;52.068;5.188;2023-04-01T05:24:08;99366.0;;;12.02;100.0
68376;BME280;55318;52.068;5.188;2023-04-01T05:25:44;99366.0;;;12.05;100.0
68376;BME280;55318;52.068;5.188;2023-04-01T05:27:20;99373.0;;;12.06;100.0
68376;BME280;55318;52.068;5.188;2023-04-01T05:30:31;99375.0;;;12.1;100.0
68376;BME280;55318;52.068;5.188;2023-04-01T05:32:07;99382.0;;;12.24;99.95
68376;BME280;55318;52.068;5.188;2023-04-01T05:33:43;99380.0;;;12.28;99.83
68376;BME280;55318;52.068;5.188;2023-04-01T05:36:55;99384.0;;;12.22;99.93
68376;BME280;55318;52.068;5.188;2023-04-01T05:38:32;99387.0;;;12.13;100.0
68376;BME280;55318;52.068;5.188;2023-04-01T05:40:09;99388.0;;;12.03;100.0
68376;BME280;55318;52.068;5.188;2023-04-01T05:43:21;99388.0;;;12.1;100.0
68376;BME280;55318;52.068;5.188;2023-04-01T05:44:57;99397.0;;;12.0;100.0
68376;BME280;55318;52.068;5.188;2023-04-01T05:46:33;99397.0;;;12.18;100.0
68376;BME280;55318;52.068;5.188;2023-04-01T05:49:45;99402.0;;;11.96;100.0
68376;BME280;55318;52.068;5.188;2023-04-01T05:51:22;99399.0;;;12.0;100.0
68376;BME280;55318;52.068;5.188;2023-04-01T05:52:59;99401.0;;;12.04;100.0
68376;BME280;55318;52.068;5.188;2023-04-01T05:54:35;99402.0;;;12.05;100.0
68376;BME280;55318;52.068;5.188;2023-04-01T05:57:47;99407.0;;;11.94;100.0
68376;BME280;55318;52.068;5.188;2023-04-01T05:59:23;99408.0;;;12.1;100.0
68376;BME280;55318;52.068;5.188;2023-04-01T06:01:00;99410.0;;;12.1;100.0
68376;BME280;55318;52.068;5.188;2023-04-01T06:04:15;99416.0;;;11.93;100.0
68376;BME280;55318;52.068;5.188;2023-04-01T06:05:52;99417.0;;;11.89;100.0
68376;BME280;55318;52.068;5.188;2023-04-01T06:07:28;99420.0;;;12.1;100.0
68376;BME280;55318;52.068;5.188;2023-04-01T06:09:10;99424.0;;;11.9;100.0
68376;BME280;55318;52.068;5.188;2023-04-01T06:12:45;99427.0;;;11.87;100.0
68376;BME280;55318;52.068;5.188;2023-04-01T06:14:44;99431.0;;;11.89;100.0
68376;BME280;55318;52.068;5.188;2023-04-01T06:16:32;99433.0;;;11.86;100.0
68376;BME280;55318;52.068;5.188;2023-04-01T06:18:35;99439.0;;;11.85;100.0
68376;BME280;55318;52.068;5.188;2023-04-01T06:21:11;99446.0;;;11.88;100.0
68376;BME280;55318;52.068;5.188;2023-04-01T06:23:10;99447.0;;;11.82;100.0
68376;BME280;55318;52.068;5.188;2023-04-01T06:27:13;99455.0;;;11.77;100.0
68376;BME280;55318;52.068;5.188;2023-04-01T06:29:10;99462.0;;;11.85;100.0
68376;BME280;55318;52.068;5.188;2023-04-01T06:31:12;99463.0;;;11.68;100.0
68376;BME280;55318;52.068;5.188;2023-04-01T06:33:05;99462.0;;;11.69;100.0
68376;BME280;55318;52.068;5.188;2023-04-01T06:35:53;99470.0;;;11.83;100.0
68376;BME280;55318;52.068;5.188;2023-04-01T06:38:05;99475.0;;;11.9;100.0
68376;BME280;55318;52.068;5.188;2023-04-01T06:41:22;99484.0;;;11.8;100.0
68376;BME280;55318;52.068;5.188;2023-04-01T06:44:16;99489.0;;;11.94;100.0
68376;BME280;55318;52.068;5.188;2023-04-01T06:46:04;99490.0;;;11.96;100.0
68376;BME280;55318;52.068;5.188;2023-04-01T06:47:54;99493.0;;;11.93;100.0
68376;BME280;55318;52.068;5.188;2023-04-01T06:49:48;99497.0;;;11.85;100.0
68376;BME280;55318;52.068;5.188;2023-04-01T06:51:38;99503.0;;;11.79;100.0
68376;BME280;55318;52.068;5.188;2023-04-01T06:53:24;99506.0;;;11.7;100.0
68376;BME280;55318;52.068;5.188;2023-04-01T06:55:21;99507.0;;;11.79;100.0
68376;BME280;55318;52.068;5.188;2023-04-01T06:58:58;99508.0;;;11.84;100.0
68376;BME280;55318;52.068;5.188;2023-04-01T07:00:40;99508.0;;;11.78;100.0
68376;BME280;55318;52.068;5.188;2023-04-01T07:02:25;99518.0;;;11.62;100.0
68376;BME280;55318;52.068;5.188;2023-04-01T07:04:10;99522.0;;;11.56;100.0
68376;BME280;55318;52.068;5.188;2023-04-01T07:05:49;99522.0;;;11.81;100.0
68376;BME280;55318;52.068;5.188;2023-04-01T07:09:15;99523.0;;;11.9;100.0
68376;BME280;55318;52.068;5.188;2023-04-01T07:10:54;99527.0;;;11.99;100.0
68376;BME280;55318;52.068;5.188;2023-04-01T07:12:40;99533.0;;;11.85;100.0
68376;BME280;55318;52.068;5.188;2023-04-01T07:14:22;99534.0;;;11.74;100.0
68376;BME280;55318;52.068;5.188;2023-04-01T07:17:53;99537.0;;;11.6;100.0
68376;BME280;55318;52.068;5.188;2023-04-01T07:19:35;99544.0;;;11.7;100.0
68376;BME280;55318;52.068;5.188;2023-04-01T07:21:23;99545.0;;;11.76;100.0
68376;BME280;55318;52.068;5.188;2023-04-01T07:23:04;99544.0;;;11.77;100.0
68376;BME280;55318;52.068;5.188;2023-04-01T07:24:44;99549.0;;;11.77;100.0
68376;BME280;55318;52.068;5.188;2023-04-01T07:28:02;99551.0;;;11.72;100.0
68376;BME280;55318;52.068;5.188;2023-04-01T07:29:40;99555.0;;;11.6;100.0
68376;BME280;55318;52.068;5.188;2023-04-01T07:31:26;99566.0;;;11.71;100.0
68376;BME280;55318;52.068;5.188;2023-04-01T07:33:14;99563.0;;;11.67;100.0
68376;BME280;55318;52.068;5.188;2023-04-01T07:35:00;99571.0;;;11.79;100.0
68376;BME280;55318;52.068;5.188;2023-04-01T07:38:45;99572.0;;;11.62;100.0
68376;BME280;55318;52.068;5.188;2023-04-01T07:40:32;99580.0;;;11.62;100.0
68376;BME280;55318;52.068;5.188;2023-04-01T07:42:18;99581.0;;;11.64;100.0
68376;BME280;55318;52.068;5.188;2023-04-01T07:44:08;99582.0;;;11.7;100.0
68376;BME280;55318;52.068;5.188;2023-04-01T07:45:59;99584.0;;;11.72;100.0
68376;BME280;55318;52.068;5.188;2023-04-01T07:47:50;99593.0;;;11.6;100.0
68376;BME280;55318;52.068;5.188;2023-04-01T07:49:38;99592.0;;;11.71;100.0
68376;BME280;55318;52.068;5.188;2023-04-01T07:53:09;99592.0;;;11.74;100.0
68376;BME280;55318;52.068;5.188;2023-04-01T07:54:57;99593.0;;;11.87;100.0
68376;BME280;55318;52.068;5.188;2023-04-01T07:56:42;99605.0;;;11.96;100.0
68376;BME280;55318;52.068;5.188;2023-04-01T07:58:28;99603.0;;;11.91;100.0
68376;BME280;55318;52.068;5.188;2023-04-01T08:00:14;99605.0;;;11.87;100.0
68376;BME280;55318;52.068;5.188;2023-04-01T08:03:59;99613.0;;;11.94;100.0
68376;BME280;55318;52.068;5.188;2023-04-01T08:05:54;99612.0;;;12.0;100.0
68376;BME280;55318;52.068;5.188;2023-04-01T08:07:37;99620.0;;;11.95;100.0
68376;BME280;55318;52.068;5.188;2023-04-01T08:09:23;99622.0;;;12.0;100.0
68376;BME280;55318;52.068;5.188;2023-04-01T08:11:14;99630.0;;;11.91;100.0
68376;BME280;55318;52.068;5.188;2023-04-01T08:13:03;99630.0;;;11.94;100.0
68376;BME280;55318;52.068;5.188;2023-04-01T08:14:53;99634.0;;;12.14;100.0
68376;BME280;55318;52.068;5.188;2023-04-01T08:18:23;99638.0;;;12.1;100.0
68376;BME280;55318;52.068;5.188;2023-04-01T08:20:16;99643.0;;;12.09;100.0
68376;BME280;55318;52.068;5.188;2023-04-01T08:22:00;99643.0;;;11.9;100.0
68376;BME280;55318;52.068;5.188;2023-04-01T08:23:41;99646.0;;;12.01;100.0
68376;BME280;55318;52.068;5.188;2023-04-01T08:25:23;99648.0;;;12.17;100.0
68376;BME280;55318;52.068;5.188;2023-04-01T08:28:50;99647.0;;;12.12;100.0
68376;BME280;55318;52.068;5.188;2023-04-01T08:30:35;99657.0;;;11.99;100.0
68376;BME280;55318;52.068;5.188;2023-04-01T08:32:18;99659.0;;;12.25;100.0
68376;BME280;55318;52.068;5.188;2023-04-01T08:34:00;99666.0;;;12.12;100.0
68376;BME280;55318;52.068;5.188;2023-04-01T08:35:44;99670.0;;;12.04;100.0
68376;BME280;55318;52.068;5.188;2023-04-01T08:39:09;99672.0;;;12.25;100.0
68376;BME280;55318;52.068;5.188;2023-04-01T08:41:33;99680.0;;;12.07;100.0
68376;BME280;55318;52.068;5.188;2023-04-01T08:44:59;99685.0;;;12.11;100.0
68376;BME280;55318;52.068;5.188;2023-04-01T08:51:19;99692.0;;;12.21;100.0
68376;BME280;55318;52.068;5.188;2023-04-01T08:54:21;99696.0;;;12.14;100.0
68376;BME280;55318;52.068;5.188;2023-04-01T08:57:36;99695.0;;;12.2;100.0
68376;BME280;55318;52.068;5.188;2023-04-01T08:59:33;99696.0;;;12.36;100.0
68376;BME280;55318;52.068;5.188;2023-04-01T09:01:41;99697.0;;;12.43;100.0
68376;BME280;55318;52.068;5.188;2023-04-01T09:04:46;99705.0;;;12.19;100.0
68376;BME280;55318;52.068;5.188;2023-04-01T09:06:40;99705.0;;;12.17;100.0
68376;BME280;55318;52.068;5.188;2023-04-01T09:08:34;99711.0;;;12.22;100.0
68376;BME280;55318;52.068;5.188;2023-04-01T09:10:31;99709.0;;;12.47;100.0
68376;BME280;55318;52.068;5.188;2023-04-01T09:13:13;99712.0;;;12.49;100.0
68376;BME280;55318;52.068;5.188;2023-04-01T09:15:42;99712.0;;;12.47;100.0
68376;BME280;55318;52.068;5.188;2023-04-01T09:18:57;99722.0;;;12.45;100.0
68376;BME280;55318;52.068;5.188;2023-04-01T09:21:50;99725.0;;;12.38;100.0
68376;BME280;55318;52.068;5.188;2023-04-01T09:23:58;99730.0;;;12.48;100.0
68376;BME280;55318;52.068;5.188;2023-04-01T09:26:21;99731.0;;;12.49;100.0
68376;BME280;55318;52.068;5.188;2023-04-01T09:28:10;99731.0;;;12.57;100.0
68376;BME280;55318;52.068;5.188;2023-04-01T09:32:34;99733.0;;;12.68;100.0
68376;BME280;55318;52.068;5.188;2023-04-01T09:36:04;99735.0;;;12.75;100.0
68376;BME280;55318;52.068;5.188;2023-04-01T09:37:52;99742.0;;;12.51;100.0
68376;BME280;55318;52.068;5.188;2023-04-01T09:39:37;99738.0;;;12.61;100.0
68376;BME280;55318;52.068;5.188;2023-04-01T09:41:26;99744.0;;;12.82;100.0
68376;BME280;55318;52.068;5.188;2023-04-01T09:43:18;99748.0;;;12.52;100.0
68376;BME280;55318;52.068;5.188;2023-04-01T09:45:08;99748.0;;;12.7;100.0
68376;BME280;55318;52.068;5.188;2023-04-01T09:47:01;99755.0;;;12.61;100.0
68376;BME280;55318;52.068;5.188;2023-04-01T09:48:59;99756.0;;;12.54;100.0
68376;BME280;55318;52.068;5.188;2023-04-01T09:52:18;99753.0;;;12.64;100.0
68376;BME280;55318;52.068;5.188;2023-04-01T09:59:27;99761.0;;;12.86;100.0
68376;BME280;55318;52.068;5.188;2023-04-01T10:01:34;99766.0;;;12.81;100.0
68376;BME280;55318;52.068;5.188;2023-04-01T10:05:51;99772.0;;;12.59;100.0
68376;BME280;55318;52.068;5.188;2023-04-01T10:14:21;99773.0;;;12.9;100.0
68376;BME280;55318;52.068;5.188;2023-04-01T10:17:00;99777.0;;;13.12;100.0
68376;BME280;55318;52.068;5.188;2023-04-01T10:20:32;99783.0;;;12.97;100.0
68376;BME280;55318;52.068;5.188;2023-04-01T10:22:44;99784.0;;;12.99;100.0
68376;BME280;55318;52.068;5.188;2023-04-01T10:26:14;99787.0;;;13.06;100.0
68376;BME280;55318;52.068;5.188;2023-04-01T10:29:51;99791.0;;;13.13;100.0
68376;BME280;55318;52.068;5.188;2023-04-01T10:33:04;99796.0;;;13.17;100.0
68376;BME280;55318;52.068;5.188;2023-04-01T10:36:47;99799.0;;;12.96;100.0
68376;BME280;55318;52.068;5.188;2023-04-01T10:38:51;99801.0;;;13.09;100.0
68376;BME280;55318;52.068;5.188;2023-04-01T10:43:01;99800.0;;;12.97;100.0
68376;BME280;55318;52.068;5.188;2023-04-01T10:49:10;99810.0;;;13.2;98.87
68376;BME280;55318;52.068;5.188;2023-04-01T10:52:22;99811.0;;;13.36;99.05
68376;BME280;55318;52.068;5.188;2023-04-01T10:56:09;99819.0;;;13.27;100.0
68376;BME280;55318;52.068;5.188;2023-04-01T10:59:45;99819.0;;;13.2;100.0
68376;BME280;55318;52.068;5.188;2023-04-01T11:06:30;99817.0;;;13.08;99.37
68376;BME280;55318;52.068;5.188;2023-04-01T11:07:22;99817.0;;;13.08;99.37
68376;BME280;55318;52.068;5.188;2023-04-01T11:12:04;99821.0;;;13.18;100.0
68376;BME280;55318;52.068;5.188;2023-04-01T11:13:33;99824.0;;;13.28;100.0
68376;BME280;55318;52.068;5.188;2023-04-01T11:14:59;99824.0;;;13.28;100.0
68376;BME280;55318;52.068;5.188;2023-04-01T11:15:26;99826.0;;;13.45;100.0
68376;BME280;55318;52.068;5.188;2023-04-01T11:16:35;99826.0;;;13.45;100.0
68376;BME280;55318;52.068;5.188;2023-04-01T11:22:23;99830.0;;;13.62;100.0
68376;BME280;55318;52.068;5.188;2023-04-01T11:23:23;99831.0;;;13.64;100.0
68376;BME280;55318;52.068;5.188;2023-04-01T11:25:42;99838.0;;;13.77;100.0
68376;BME280;55318;52.068;5.188;2023-04-01T11:28:10;99839.0;;;13.67;100.0
68376;BME280;55318;52.068;5.188;2023-04-01T11:30:22;99839.0;;;13.8;99.83
68376;BME280;55318;52.068;5.188;2023-04-01T11:32:07;99843.0;;;13.82;98.93
68376;BME280;55318;52.068;5.188;2023-04-01T11:33:57;99842.0;;;13.76;97.85
68376;BME280;55318;52.068;5.188;2023-04-01T11:35:52;99844.0;;;13.89;96.99
68376;BME280;55318;52.068;5.188;2023-04-01T11:38:10;99852.0;;;13.85;97.51
68376;BME280;55318;52.068;5.188;2023-04-01T11:39:59;99858.0;;;13.76;98.47
68376;BME280;55318;52.068;5.188;2023-04-01T11:41:46;99858.0;;;13.92;98.36
68376;BME280;55318;52.068;5.188;2023-04-01T11:45:23;99858.0;;;14.14;98.46
68376;BME280;55318;52.068;5.188;2023-04-01T11:49:28;99868.0;;;13.83;98.09
68376;BME280;55318;52.068;5.188;2023-04-01T11:51:53;99865.0;;;13.98;98.77
68376;BME280;55318;52.068;5.188;2023-04-01T11:54:07;99869.0;;;13.98;97.43
68376;BME280;55318;52.068;5.188;2023-04-01T11:55:58;99871.0;;;13.89;97.33
68376;BME280;55318;52.068;5.188;2023-04-01T11:57:56;99883.0;;;13.89;96.7
68376;BME280;55318;52.068;5.188;2023-04-01T11:59:56;99880.0;;;13.76;96.97
68376;BME280;55318;52.068;5.188;2023-04-01T12:01:46;99878.0;;;13.8;97.02
68376;BME280;55318;52.068;5.188;2023-04-01T12:03:41;99884.0;;;13.72;96.67
68376;BME280;55318;52.068;5.188;2023-04-01T12:06:02;99890.0;;;13.81;96.7
68376;BME280;55318;52.068;5.188;2023-04-01T12:07:55;99891.0;;;13.66;98.06
68376;BME280;55318;52.068;5.188;2023-04-01T12:09:43;99891.0;;;13.58;98.16
68376;BME280;55318;52.068;5.188;2023-04-01T12:11:29;99896.0;;;13.54;98.6
68376;BME280;55318;52.068;5.188;2023-04-01T12:13:20;99901.0;;;13.6;97.98
68376;BME280;55318;52.068;5.188;2023-04-01T12:17:01;99905.0;;;13.72;98.71
68376;BME280;55318;52.068;5.188;2023-04-01T12:18:42;99906.0;;;13.75;98.88
68376;BME280;55318;52.068;5.188;2023-04-01T12:20:30;99911.0;;;13.89;98.98